Time;durP1;ratioP1;P1;durP2;ratioP2;P2;SDS_P1;SDS_P2;PMS_P1;PMS_P2;Temp;Humidity;BMP_temperature;BMP_pressure;BME280_temperature;BME280_humidity;BME280_pressure;Samples;Min_cycle;Max_cycle;Signal;HPM_P1;HPM_P2
2021/12/26 04:23:35;;;;;;;13.97;7.30;;;;;;;-8.30;81.23;100346.77;1825078;77;23286;-73
2021/12/26 04:26:03;;;;;;;13.65;6.72;;;;;;;-8.26;81.07;100345.08;1749636;82;21767;-73
2021/12/26 04:28:29;;;;;;;11.78;6.47;;;;;;;-8.19;80.99;100341.90;1741167;82;21557;-73
2021/12/26 04:30:56;;;;;;;13.78;6.47;;;;;;;-8.11;80.90;100354.50;1709654;82;21043;-73
2021/12/26 04:33:24;;;;;;;14.03;7.20;;;;;;;-8.05;80.85;100344.88;1740925;82;21063;-73
2021/12/26 04:35:50;;;;;;;13.32;6.78;;;;;;;-7.97;80.77;100341.55;1741269;82;21040;-73
2021/12/26 04:38:17;;;;;;;14.13;6.92;;;;;;;-7.89;80.71;100355.94;1741249;82;21090;-73
2021/12/26 04:40:43;;;;;;;14.75;7.20;;;;;;;-7.82;80.65;100349.70;1741521;82;21130;-73
2021/12/26 04:43:29;;;;;;;15.65;6.83;;;;;;;-7.75;80.54;100347.35;1743202;82;21562;-73
2021/12/26 04:45:57;;;;;;;13.95;6.95;;;;;;;-7.70;80.40;100348.56;1740798;82;20940;-73
2021/12/26 04:48:43;;;;;;;13.18;6.95;;;;;;;-7.65;80.29;100352.01;1740803;82;21052;-72
2021/12/26 04:51:10;;;;;;;14.00;6.55;;;;;;;-7.59;80.18;100357.92;1743396;82;21016;-73
2021/12/26 04:53:38;;;;;;;14.30;7.33;;;;;;;-7.54;80.04;100358.28;1743630;82;21080;-72
2021/12/26 04:56:06;;;;;;;12.70;6.50;;;;;;;-7.49;79.87;100361.28;1743405;82;20996;-72
2021/12/26 04:58:34;;;;;;;12.10;6.80;;;;;;;-7.43;79.73;100368.48;1743499;82;20964;-72
2021/12/26 05:01:01;;;;;;;15.23;7.42;;;;;;;-7.44;79.71;100369.42;1743488;82;21438;-71
2021/12/26 05:03:27;;;;;;;14.18;7.20;;;;;;;-7.37;79.56;100370.51;1743271;82;21047;-72
2021/12/26 05:05:54;;;;;;;14.60;6.75;;;;;;;-7.27;79.40;100370.91;1711802;82;21145;-71
2021/12/26 05:08:22;;;;;;;12.60;6.60;;;;;;;-7.17;79.19;100375.55;1729076;82;20968;-71
2021/12/26 05:10:49;;;;;;;13.28;7.22;;;;;;;-7.16;78.91;100374.61;1741927;82;21072;-72
2021/12/26 05:13:18;;;;;;;12.53;6.92;;;;;;;-7.16;78.68;100374.61;1735163;82;21273;-73
2021/12/26 05:15:46;;;;;;;14.20;7.35;;;;;;;-7.11;78.43;100378.86;1733931;82;21153;-73
2021/12/26 05:18:13;;;;;;;12.33;6.90;;;;;;;-7.06;78.20;100375.36;1733723;82;21994;-72
2021/12/26 05:20:40;;;;;;;14.43;7.17;;;;;;;-7.03;77.96;100378.96;1734062;82;20988;-73
2021/12/26 05:23:07;;;;;;;13.28;7.25;;;;;;;-7.03;77.73;100380.26;1734064;82;20988;-72
2021/12/26 05:25:35;;;;;;;13.03;7.00;;;;;;;-7.08;77.58;100387.17;1734571;82;21482;-72
2021/12/26 05:28:04;;;;;;;13.03;7.15;;;;;;;-7.04;77.44;100390.77;1728192;82;20960;-74
2021/12/26 05:30:31;;;;;;;14.30;6.87;;;;;;;-7.09;77.28;100393.82;1734393;82;21113;-74
2021/12/26 05:33:05;;;;;;;13.65;7.40;;;;;;;-7.05;77.19;100388.66;1732679;82;21016;-74
2021/12/26 05:35:33;;;;;;;13.18;6.97;;;;;;;-7.01;77.02;100393.08;1713003;82;21534;-73
2021/12/26 05:38:00;;;;;;;11.20;6.42;;;;;;;-6.98;76.79;100391.00;1734835;82;20968;-73
2021/12/26 05:40:27;;;;;;;11.93;6.28;;;;;;;-6.97;76.68;100387.95;1733999;82;21040;-73
2021/12/26 05:42:53;;;;;;;13.32;6.67;;;;;;;-6.96;76.57;100392.98;1734746;82;21524;-73
2021/12/26 05:45:22;;;;;;;15.48;6.87;;;;;;;-6.98;76.37;100395.38;1713917;82;21071;-73
2021/12/26 05:47:53;;;;;;;11.45;6.67;;;;;;;-7.01;76.25;100396.97;1731785;82;21521;-74
2021/12/26 05:50:20;;;;;;;11.97;6.80;;;;;;;-7.02;76.08;100400.05;1734588;82;20996;-72
2021/12/26 05:52:55;;;;;;;14.83;6.87;;;;;;;-7.07;75.91;100402.29;1734620;82;21003;-73
2021/12/26 05:55:22;;;;;;;15.45;8.00;;;;;;;-7.12;75.75;100408.39;1734856;82;21122;-73
2021/12/26 05:57:50;;;;;;;16.37;7.65;;;;;;;-7.19;75.72;100406.05;1734365;82;21071;-73
2021/12/26 06:00:20;;;;;;;16.30;8.60;;;;;;;-7.20;75.77;100409.61;1734914;82;21064;-74
2021/12/26 06:02:50;;;;;;;14.18;7.17;;;;;;;-7.24;75.77;100410.36;1734710;82;21050;-73
2021/12/26 06:05:16;;;;;;;13.98;7.87;;;;;;;-7.26;75.81;100412.30;1734888;82;20945;-73
2021/12/26 06:07:44;;;;;;;16.77;8.23;;;;;;;-7.28;75.82;100409.02;1713715;82;21114;-73
2021/12/26 06:10:11;;;;;;;13.93;7.12;;;;;;;-7.26;75.79;100411.48;1734863;82;20964;-74
2021/12/26 06:12:38;;;;;;;17.80;8.78;;;;;;;-7.30;75.73;100412.26;1734753;82;21493;-74
2021/12/26 06:15:07;;;;;;;16.80;8.33;;;;;;;-7.37;75.71;100412.02;1734843;82;21106;-72
2021/12/26 06:17:36;;;;;;;16.42;8.18;;;;;;;-7.39;75.78;100416.52;1735050;82;21061;-72
2021/12/26 06:20:13;;;;;;;15.20;7.83;;;;;;;-7.38;75.85;100421.23;1734826;82;21531;-71
2021/12/26 06:22:39;;;;;;;15.85;7.83;;;;;;;-7.35;75.87;100419.64;1734513;82;21002;-72
2021/12/26 06:25:24;;;;;;;16.02;7.40;;;;;;;-7.35;75.88;100423.05;1734995;82;21055;-74
2021/12/26 06:27:52;;;;;;;13.72;7.45;;;;;;;-7.29;75.88;100431.23;1732888;82;20972;-73
2021/12/26 06:30:22;;;;;;;13.90;7.92;;;;;;;-7.26;75.94;100438.73;1734887;82;21022;-74
2021/12/26 06:33:05;;;;;;;15.80;7.70;;;;;;;-7.21;75.91;100436.50;1731607;82;21959;-72
2021/12/26 06:35:52;;;;;;;17.80;8.53;;;;;;;-7.18;75.88;100437.52;1734572;82;20955;-73
2021/12/26 06:38:38;;;;;;;15.40;6.90;;;;;;;-7.11;75.86;100443.75;1734653;82;21502;-72
2021/12/26 06:41:25;;;;;;;13.95;7.05;;;;;;;-7.07;75.83;100451.61;1734838;82;22104;-72
2021/12/26 06:44:05;;;;;;;16.57;7.95;;;;;;;-7.04;75.82;100443.98;1731196;82;21034;-71
2021/12/26 06:46:49;;;;;;;13.28;6.65;;;;;;;-6.99;75.79;100451.69;1732869;82;21558;-72
2021/12/26 06:49:23;;;;;;;16.15;7.62;;;;;;;-6.95;75.74;100445.72;1734188;82;21019;-73
2021/12/26 06:51:50;;;;;;;14.93;7.33;;;;;;;-6.91;75.70;100445.30;1733733;82;21011;-73
2021/12/26 06:54:18;;;;;;;16.77;8.08;;;;;;;-6.86;75.64;100444.36;1706076;82;20991;-73
2021/12/26 06:56:44;;;;;;;19.23;8.95;;;;;;;-6.79;75.57;100443.78;1705372;84;21068;-73
2021/12/26 06:59:11;;;;;;;13.62;7.37;;;;;;;-6.72;75.52;100451.31;1705394;84;22012;-73
2021/12/26 07:01:38;;;;;;;16.95;8.20;;;;;;;-6.67;75.36;100449.10;1707271;82;21022;-74
2021/12/26 07:04:06;;;;;;;15.53;8.18;;;;;;;-6.63;75.34;100453.84;1734885;82;21113;-73
2021/12/26 07:06:33;;;;;;;18.70;9.38;;;;;;;-6.59;75.19;100453.06;1713630;82;21507;-73
2021/12/26 07:09:02;;;;;;;15.88;7.40;;;;;;;-6.51;75.15;100457.05;1733818;82;20956;-73
2021/12/26 07:11:29;;;;;;;16.82;8.20;;;;;;;-6.47;75.00;100453.18;1734660;82;21083;-73
2021/12/26 07:13:56;;;;;;;18.90;8.75;;;;;;;-6.39;74.97;100440.73;1734681;82;21316;-74
2021/12/26 07:16:25;;;;;;;16.97;8.28;;;;;;;-6.30;74.93;100450.72;1713094;82;21111;-73
2021/12/26 07:18:52;;;;;;;20.05;9.23;;;;;;;-6.24;74.70;100448.34;1734667;82;21447;-73
2021/12/26 07:21:20;;;;;;;18.90;8.93;;;;;;;-6.17;74.50;100448.06;1734709;82;21000;-73
2021/12/26 07:23:48;;;;;;;18.77;8.88;;;;;;;-6.11;74.39;100447.14;1734120;82;21552;-73
2021/12/26 07:26:17;;;;;;;16.35;8.83;;;;;;;-6.04;74.22;100439.06;1734494;82;21118;-73
2021/12/26 07:28:44;;;;;;;17.50;8.75;;;;;;;-5.99;73.92;100440.25;1735068;82;20960;-73
2021/12/26 07:31:13;;;;;;;16.97;8.63;;;;;;;-5.93;73.78;100439.61;1734644;82;20955;-73
2021/12/26 07:33:41;;;;;;;16.87;9.33;;;;;;;-5.88;73.64;100440.93;1734711;82;20995;-73
2021/12/26 07:36:08;;;;;;;16.00;7.65;;;;;;;-5.84;73.38;100437.86;1734997;82;21532;-73
2021/12/26 07:38:47;;;;;;;14.68;7.60;;;;;;;-5.78;73.19;100437.74;1733438;82;21071;-72
2021/12/26 07:41:13;;;;;;;18.15;8.68;;;;;;;-5.74;72.99;100444.26;1734232;82;21000;-73
2021/12/26 07:43:41;;;;;;;17.07;8.30;;;;;;;-5.70;72.80;100442.97;1713744;82;21023;-74
2021/12/26 07:46:10;;;;;;;20.23;9.23;;;;;;;-5.67;72.53;100449.98;1693784;82;21613;-73
2021/12/26 07:48:39;;;;;;;17.55;8.23;;;;;;;-5.57;72.51;100448.58;1733722;82;21164;-73
2021/12/26 07:51:06;;;;;;;18.30;9.43;;;;;;;-5.46;72.44;100444.91;1734685;82;20959;-73
2021/12/26 07:53:52;;;;;;;17.82;8.28;;;;;;;-5.38;72.16;100450.14;1734906;82;20968;-74
2021/12/26 07:56:38;;;;;;;14.90;7.83;;;;;;;-5.30;71.88;100451.95;1734478;82;21026;-74
2021/12/26 07:59:25;;;;;;;19.27;8.48;;;;;;;-5.24;71.70;100450.03;1734882;82;21177;-75
2021/12/26 08:02:15;;;;;;;16.17;8.45;;;;;;;-5.20;71.39;100452.18;1734489;82;21158;-74
2021/12/26 08:04:53;;;;;;;16.82;8.18;;;;;;;-5.14;70.98;100450.72;1698699;84;21562;-73
2021/12/26 08:07:34;;;;;;;16.27;8.43;;;;;;;-5.11;70.84;100447.80;1721586;83;21054;-73
2021/12/26 08:10:01;;;;;;;18.98;9.40;;;;;;;-5.09;70.76;100443.27;1753625;81;21473;-75
2021/12/26 08:12:31;;;;;;;16.67;8.55;;;;;;;-5.03;70.79;100445.23;1752978;80;21129;-74
2021/12/26 08:15:01;;;;;;;18.07;8.25;;;;;;;-4.91;70.69;100445.74;1753620;81;21484;-75
2021/12/26 08:17:29;;;;;;;14.85;8.23;;;;;;;-4.83;70.50;100447.08;1753074;80;21583;-75
2021/12/26 08:19:59;;;;;;;15.80;7.90;;;;;;;-4.78;70.34;100441.38;1753246;81;21057;-74
2021/12/26 08:22:26;;;;;;;14.18;8.15;;;;;;;-4.71;70.26;100439.77;1753060;80;21058;-74
2021/12/26 08:24:52;;;;;;;14.75;7.78;;;;;;;-4.58;70.23;100441.41;1749646;81;21046;-74
2021/12/26 08:27:19;;;;;;;14.20;7.72;;;;;;;-4.45;69.91;100437.52;1753174;81;21583;-74
2021/12/26 08:29:48;;;;;;;15.23;7.70;;;;;;;-4.40;69.58;100438.67;1753317;81;21063;-75
2021/12/26 08:32:17;;;;;;;17.20;7.67;;;;;;;-4.33;69.32;100446.16;1752948;80;21474;-74
2021/12/26 08:34:44;;;;;;;12.55;6.67;;;;;;;-4.29;69.23;100450.07;1753613;81;21130;-75
2021/12/26 08:37:11;;;;;;;14.68;8.15;;;;;;;-4.18;69.15;100441.59;1753056;81;20971;-75
2021/12/26 08:39:41;;;;;;;12.85;7.45;;;;;;;-4.10;69.01;100442.91;1753412;81;21483;-74
2021/12/26 08:42:10;;;;;;;13.53;7.20;;;;;;;-3.99;68.62;100437.34;1753227;80;21003;-74
2021/12/26 08:44:36;;;;;;;14.45;7.03;;;;;;;-3.91;68.42;100434.73;1752226;81;21113;-74
2021/12/26 08:47:04;;;;;;;16.55;7.83;;;;;;;-3.84;68.31;100421.84;1753153;81;21003;-73
2021/12/26 08:49:31;;;;;;;14.47;7.15;;;;;;;-3.78;67.99;100422.48;1753195;81;21011;-74
2021/12/26 08:51:57;;;;;;;14.23;7.03;;;;;;;-3.73;67.76;100421.47;1752732;81;21155;-74
2021/12/26 08:54:26;;;;;;;14.63;7.45;;;;;;;-3.66;67.58;100415.91;1753053;81;21108;-74
2021/12/26 08:56:53;;;;;;;12.60;6.78;;;;;;;-3.59;67.54;100413.44;1753121;80;21136;-73
2021/12/26 08:59:21;;;;;;;14.23;6.97;;;;;;;-3.51;66.82;100423.06;1753332;81;20983;-74
2021/12/26 09:01:49;;;;;;;13.28;6.83;;;;;;;-3.54;66.53;100394.98;1753174;80;21006;-73
2021/12/26 09:04:16;;;;;;;14.28;7.15;;;;;;;-3.51;66.49;100402.17;1753436;81;21987;-73
2021/12/26 09:06:43;;;;;;;14.35;6.58;;;;;;;-3.47;66.54;100397.73;1753148;81;21600;-74
2021/12/26 09:09:12;;;;;;;12.80;7.03;;;;;;;-3.38;66.78;100400.64;1753361;81;21101;-74
2021/12/26 09:11:39;;;;;;;12.05;6.12;;;;;;;-3.27;66.56;100395.53;1753069;80;21106;-74
2021/12/26 09:14:06;;;;;;;12.80;6.40;;;;;;;-3.24;66.66;100395.19;1753362;81;21216;-74
2021/12/26 09:16:34;;;;;;;11.12;5.80;;;;;;;-3.07;66.41;100394.61;1753529;80;21147;-74
2021/12/26 09:19:03;;;;;;;11.12;5.50;;;;;;;-2.87;65.67;100385.34;1753295;81;20968;-74
2021/12/26 09:21:31;;;;;;;12.37;5.47;;;;;;;-2.81;65.29;100385.14;1749633;81;21014;-74
2021/12/26 09:23:57;;;;;;;11.00;5.62;;;;;;;-2.84;65.09;100379.77;1726259;83;21099;-74
2021/12/26 09:26:25;;;;;;;11.35;5.33;;;;;;;-2.74;65.07;100380.84;1734079;82;21062;-74
2021/12/26 09:28:52;;;;;;;13.60;5.72;;;;;;;-2.74;65.07;100380.84;1732690;82;21555;-74
2021/12/26 09:31:20;;;;;;;11.83;5.60;;;;;;;-2.57;64.44;100382.84;1734235;82;21185;-75
2021/12/26 09:33:49;;;;;;;9.60;5.30;;;;;;;-2.54;64.29;100379.87;1733821;82;21067;-75
2021/12/26 09:36:17;;;;;;;9.25;4.80;;;;;;;-2.54;64.29;100379.87;1734910;82;21837;-75
2021/12/26 09:38:43;;;;;;;8.98;4.55;;;;;;;-2.46;63.89;100382.94;1734155;82;21503;-74
2021/12/26 09:41:10;;;;;;;11.03;5.37;;;;;;;-2.40;63.53;100379.13;1734732;82;21138;-75
2021/12/26 09:43:37;;;;;;;8.43;4.28;;;;;;;-2.34;63.51;100384.62;1734113;82;21008;-76
2021/12/26 09:46:04;;;;;;;7.60;4.10;;;;;;;-2.27;62.79;100376.37;1704870;82;21557;-75
2021/12/26 09:48:31;;;;;;;8.65;3.90;;;;;;;-2.23;62.72;100382.41;1734131;82;21605;-75
2021/12/26 09:50:57;;;;;;;7.62;3.80;;;;;;;-2.17;62.53;100369.92;1734899;82;21038;-74
2021/12/26 09:53:24;;;;;;;9.53;3.83;;;;;;;-2.12;62.37;100371.49;1713811;82;21515;-75
2021/12/26 09:55:51;;;;;;;7.12;3.47;;;;;;;-2.02;62.02;100384.82;1733326;81;21068;-71
2021/12/26 09:58:20;;;;;;;7.72;3.80;;;;;;;-1.98;61.18;100385.58;1733035;81;20999;-71
2021/12/26 10:00:48;;;;;;;8.63;3.98;;;;;;;-1.95;60.86;100362.17;1734862;81;21466;-69
2021/12/26 10:03:30;;;;;;;11.38;5.55;;;;;;;-1.92;60.86;100368.36;1736888;81;20999;-70
2021/12/26 10:06:14;;;;;;;13.70;6.92;;;;;;;-1.87;60.86;100369.14;1734687;81;21067;-71
2021/12/26 10:09:01;;;;;;;10.75;5.50;;;;;;;-1.84;60.25;100359.59;1736829;81;21563;-70
2021/12/26 10:11:34;;;;;;;14.23;7.28;;;;;;;-1.78;60.07;100360.98;1733478;82;21067;-71
2021/12/26 10:14:05;;;;;;;11.20;5.20;;;;;;;-1.75;60.25;100361.13;1734726;82;21458;-70
2021/12/26 10:16:53;;;;;;;14.13;6.78;;;;;;;-1.63;60.22;100360.19;1737047;81;21015;-70
2021/12/26 10:19:21;;;;;;;17.42;8.28;;;;;;;-1.58;59.63;100357.82;1734472;82;21142;-71
2021/12/26 10:21:52;;;;;;;11.68;5.72;;;;;;;-1.53;59.30;100363.34;1734595;82;21011;-71
2021/12/26 10:24:27;;;;;;;12.80;6.08;;;;;;;-1.49;58.92;100370.64;1733445;82;21166;-72
2021/12/26 10:27:00;;;;;;;11.45;5.25;;;;;;;-1.44;58.24;100380.09;1734566;82;21030;-70
2021/12/26 10:29:38;;;;;;;11.30;5.50;;;;;;;-1.48;57.58;100377.99;1727789;82;21034;-70
2021/12/26 10:32:18;;;;;;;12.13;5.37;;;;;;;-1.51;57.89;100371.34;1713143;82;21516;-70
2021/12/26 10:34:54;;;;;;;9.98;4.00;;;;;;;-1.51;57.72;100363.48;1734259;82;21577;-71
2021/12/26 10:37:30;;;;;;;8.18;3.42;;;;;;;-1.48;57.71;100355.26;1731911;82;21051;-71
2021/12/26 10:40:07;;;;;;;7.20;3.30;;;;;;;-1.45;57.45;100364.06;1712283;82;20999;-71
2021/12/26 10:42:35;;;;;;;7.55;3.72;;;;;;;-1.44;57.40;100359.63;1735270;82;20956;-72
2021/12/26 10:45:08;;;;;;;8.10;4.12;;;;;;;-1.36;57.54;100359.52;1734977;82;21787;-70
2021/12/26 10:47:37;;;;;;;8.60;3.70;;;;;;;-1.34;57.20;100361.46;1732532;82;20999;-73
2021/12/26 10:50:15;;;;;;;7.35;3.55;;;;;;;-1.30;57.28;100352.23;1733582;81;20963;-70
2021/12/26 10:52:58;;;;;;;8.45;4.22;;;;;;;-1.22;57.49;100365.23;1733302;82;21011;-69
2021/12/26 10:55:40;;;;;;;7.03;3.80;;;;;;;-1.21;57.03;100361.61;1733319;81;21086;-69
2021/12/26 10:58:10;;;;;;;7.42;3.62;;;;;;;-1.16;57.01;100366.28;1732463;81;21128;-68
2021/12/26 11:00:43;;;;;;;7.50;3.43;;;;;;;-1.08;57.12;100372.74;1734836;82;20944;-68
2021/12/26 11:03:13;;;;;;;7.47;3.42;;;;;;;-1.05;56.70;100363.70;1733179;82;24788;-69
2021/12/26 11:05:44;;;;;;;8.08;3.00;;;;;;;-1.05;56.48;100364.52;1733007;82;21050;-67
2021/12/26 11:08:15;;;;;;;7.28;3.62;;;;;;;-1.08;56.16;100360.95;1732457;82;20980;-67
2021/12/26 11:10:51;;;;;;;7.85;3.65;;;;;;;-1.08;56.58;100356.21;1733643;82;21142;-67
2021/12/26 11:13:24;;;;;;;9.28;3.37;;;;;;;-1.07;56.54;100359.94;1733352;82;21549;-67
2021/12/26 11:16:01;;;;;;;9.78;3.87;;;;;;;-1.08;56.56;100360.95;1735484;82;21503;-67
2021/12/26 11:18:28;;;;;;;8.28;3.55;;;;;;;-1.05;56.88;100362.39;1732756;82;21067;-67
2021/12/26 11:20:58;;;;;;;8.53;4.40;;;;;;;-0.97;56.74;100363.57;1733906;82;21062;-67
2021/12/26 11:23:28;;;;;;;8.43;3.90;;;;;;;-0.92;56.48;100366.46;1734174;82;21927;-66
2021/12/26 11:26:06;;;;;;;7.85;3.80;;;;;;;-0.92;56.25;100364.31;1734805;82;21423;-67
2021/12/26 11:28:41;;;;;;;8.75;3.40;;;;;;;-0.94;56.46;100363.20;1734569;82;21013;-67
2021/12/26 11:31:10;;;;;;;8.78;3.83;;;;;;;-0.89;56.38;100360.81;1733558;82;21025;-68
2021/12/26 11:33:38;;;;;;;8.48;3.55;;;;;;;-0.89;55.82;100359.50;1728782;82;21094;-69
2021/12/26 11:36:09;;;;;;;6.65;3.30;;;;;;;-0.91;56.08;100361.52;1729222;82;21198;-68
2021/12/26 11:38:36;;;;;;;9.28;3.17;;;;;;;-0.96;55.82;100353.39;1728467;82;21094;-67
2021/12/26 11:41:58;;;;;;;9.28;3.75;;;;;;;-0.96;55.79;100354.70;1627340;88;20996;-69
2021/12/26 11:45:08;;;;;;;6.95;3.10;;;;;;;-0.97;55.76;100349.16;1627505;88;21027;-67
2021/12/26 11:48:41;;;;;;;8.28;3.55;;;;;;;-1.06;55.91;100347.64;1731873;82;21576;-68
2021/12/26 11:51:50;;;;;;;9.05;3.85;;;;;;;-1.12;56.12;100347.07;1735148;82;22049;-66
2021/12/26 11:54:51;;;;;;;7.30;3.33;;;;;;;-1.13;56.54;100355.94;1731859;82;21011;-67
2021/12/26 11:58:21;;;;;;;6.75;3.15;;;;;;;-1.12;56.82;100358.86;1732935;82;21083;-68
2021/12/26 12:00:51;;;;;;;7.37;2.90;;;;;;;-1.09;56.81;100351.95;1735089;82;21554;-66
2021/12/26 12:03:21;;;;;;;6.97;3.05;;;;;;;-1.12;56.67;100356.24;1738135;82;21019;-66
2021/12/26 12:05:48;;;;;;;4.95;2.75;;;;;;;-1.15;56.60;100355.30;1738175;82;21466;-69
2021/12/26 12:08:29;;;;;;;6.83;3.17;;;;;;;-1.13;56.90;100358.56;1734985;82;20929;-67
2021/12/26 12:11:05;;;;;;;8.18;3.37;;;;;;;-1.16;57.00;100368.09;1734224;82;20972;-67
2021/12/26 12:13:40;;;;;;;7.53;3.60;;;;;;;-1.14;56.76;100366.13;1735706;82;20971;-68
2021/12/26 12:16:09;;;;;;;6.92;3.40;;;;;;;-1.13;56.71;100367.23;1734406;82;21494;-69
2021/12/26 12:18:41;;;;;;;6.95;2.83;;;;;;;-1.11;56.56;100365.25;1734951;82;22000;-67
2021/12/26 12:21:33;;;;;;;7.60;3.50;;;;;;;-1.12;56.48;100368.84;1729004;82;21050;-65
2021/12/26 12:24:16;;;;;;;6.92;2.85;;;;;;;-1.10;56.62;100371.30;1736643;82;20976;-67
2021/12/26 12:27:00;;;;;;;6.17;3.00;;;;;;;-1.04;56.71;100373.19;1736771;82;21574;-67
2021/12/26 12:29:41;;;;;;;7.37;3.40;;;;;;;-0.96;56.31;100377.80;1708570;82;21024;-68
2021/12/26 12:32:13;;;;;;;5.95;2.92;;;;;;;-0.98;56.00;100370.63;1704324;84;21509;-67
2021/12/26 12:35:01;;;;;;;6.67;3.25;;;;;;;-1.00;56.05;100368.68;1704271;84;21053;-68
2021/12/26 12:37:47;;;;;;;7.58;3.55;;;;;;;-1.04;55.77;100371.88;1709246;82;21062;-68
2021/12/26 12:40:30;;;;;;;8.10;3.55;;;;;;;-1.07;56.05;100369.63;1734540;82;21482;-67
2021/12/26 12:43:09;;;;;;;7.03;2.83;;;;;;;-1.11;55.97;100384.09;1735263;82;20992;-67
2021/12/26 12:46:00;;;;;;;6.35;3.27;;;;;;;-1.17;56.04;100381.70;1734735;82;21221;-67
2021/12/26 12:48:45;;;;;;;8.00;3.10;;;;;;;-1.18;56.06;100365.68;1734825;82;21001;-67
2021/12/26 12:51:20;;;;;;;7.28;3.67;;;;;;;-1.22;55.95;100380.13;1734007;81;21077;-66
2021/12/26 12:53:55;;;;;;;7.92;3.65;;;;;;;-1.23;56.14;100385.87;1734859;82;21039;-67
2021/12/26 12:56:36;;;;;;;8.55;3.55;;;;;;;-1.26;56.16;100387.55;1735254;82;21498;-68
2021/12/26 12:59:21;;;;;;;6.53;3.33;;;;;;;-1.28;56.23;100388.24;1734569;82;21278;-68
2021/12/26 13:01:53;;;;;;;8.28;3.52;;;;;;;-1.30;56.01;100396.77;1705553;84;21019;-68
2021/12/26 13:04:26;;;;;;;5.95;2.70;;;;;;;-1.36;56.02;100398.00;1719254;82;21011;-67
2021/12/26 13:07:01;;;;;;;10.90;3.30;;;;;;;-1.41;56.15;100394.63;1734993;82;21118;-67
2021/12/26 13:09:31;;;;;;;8.23;3.25;;;;;;;-1.48;56.07;100396.33;1733935;82;21054;-69
2021/12/26 13:12:02;;;;;;;7.65;3.67;;;;;;;-1.48;56.22;100402.87;1734910;82;21119;-69
2021/12/26 13:14:51;;;;;;;7.70;3.77;;;;;;;-1.52;56.27;100401.62;1734290;82;21055;-66
2021/12/26 13:17:34;;;;;;;7.80;3.33;;;;;;;-1.54;56.42;100406.25;1734840;82;21046;-66
2021/12/26 13:20:13;;;;;;;6.85;3.12;;;;;;;-1.57;56.49;100406.61;1733665;82;21091;-66
2021/12/26 13:22:48;;;;;;;6.53;3.55;;;;;;;-1.62;56.51;100412.88;1734884;82;21514;-66
2021/12/26 13:25:30;;;;;;;8.20;3.95;;;;;;;-1.66;56.63;100422.39;1734014;82;21173;-67
2021/12/26 13:28:00;;;;;;;9.45;5.00;;;;;;;-1.70;56.78;100413.78;1734895;82;21094;-66
2021/12/26 13:30:28;;;;;;;8.33;4.65;;;;;;;-1.76;56.87;100420.55;1734311;82;21317;-67
2021/12/26 13:32:55;;;;;;;15.98;6.97;;;;;;;-1.80;56.95;100423.21;1734954;82;21015;-67
2021/12/26 13:35:34;;;;;;;13.08;5.70;;;;;;;-1.85;57.11;100426.04;1733834;82;21031;-67
2021/12/26 13:38:03;;;;;;;11.60;5.75;;;;;;;-1.87;57.19;100426.23;1735044;82;21119;-67
2021/12/26 13:40:37;;;;;;;10.82;4.80;;;;;;;-1.87;57.31;100430.66;1734863;82;20972;-68
2021/12/26 13:43:04;;;;;;;10.25;4.95;;;;;;;-1.93;57.33;100436.11;1731112;82;21577;-68
2021/12/26 13:45:38;;;;;;;10.70;4.47;;;;;;;-1.97;57.46;100434.34;1705422;84;21513;-68
2021/12/26 13:48:04;;;;;;;;;;;;;;;-1.99;57.53;100432.39;1708092;84;21648;-68
2021/12/26 13:50:31;;;;;;;9.33;4.28;;;;;;;-2.00;57.58;100436.00;1705483;84;21540;-68
2021/12/26 13:53:06;;;;;;;8.90;4.92;;;;;;;-2.05;57.70;100436.20;1707557;82;21067;-69
2021/12/26 13:55:38;;;;;;;9.88;4.55;;;;;;;-2.09;57.81;100440.98;1705726;82;21015;-68
2021/12/26 13:58:11;;;;;;;8.85;4.90;;;;;;;-2.13;57.90;100439.72;1705590;84;21050;-66
2021/12/26 14:00:55;;;;;;;9.05;4.80;;;;;;;-2.15;58.00;100441.69;1705375;84;21046;-67
2021/12/26 14:03:23;;;;;;;10.68;5.47;;;;;;;-2.18;58.11;100448.08;1705611;84;21236;-68
2021/12/26 14:05:50;;;;;;;11.05;5.58;;;;;;;-2.22;58.20;100453.36;1705511;84;21019;-67
2021/12/26 14:08:21;;;;;;;10.93;4.70;;;;;;;-2.26;58.27;100455.20;1720820;82;21019;-69
2021/12/26 14:11:04;;;;;;;10.93;4.72;;;;;;;-2.31;58.36;100455.70;1735228;82;20968;-67
2021/12/26 14:13:31;;;;;;;10.40;4.87;;;;;;;-2.35;58.48;100447.89;1734593;82;20948;-68
2021/12/26 14:16:00;;;;;;;10.28;4.90;;;;;;;-2.39;58.57;100447.94;1733953;82;21169;-68
2021/12/26 14:18:34;;;;;;;10.53;5.08;;;;;;;-2.39;58.65;100454.48;1730889;82;21071;-67
2021/12/26 14:21:05;;;;;;;10.00;4.60;;;;;;;-2.45;58.75;100452.55;1734866;82;21060;-67
2021/12/26 14:23:42;;;;;;;11.40;5.15;;;;;;;-2.49;58.84;100463.05;1734580;82;21062;-67
2021/12/26 14:26:24;;;;;;;11.15;5.08;;;;;;;-2.53;58.95;100469.12;1734853;82;21071;-68
2021/12/26 14:28:54;;;;;;;10.72;5.53;;;;;;;-2.60;59.15;100462.47;1735207;82;21536;-67
2021/12/26 14:31:45;;;;;;;8.65;4.80;;;;;;;-2.58;59.26;100469.31;1734474;82;21066;-68
2021/12/26 14:34:22;;;;;;;12.70;5.75;;;;;;;-2.62;59.41;100477.50;1734881;82;21434;-67
2021/12/26 14:37:08;;;;;;;14.03;5.55;;;;;;;-2.66;59.53;100463.16;1734712;82;21043;-67
2021/12/26 14:39:42;;;;;;;11.75;5.42;;;;;;;-2.67;59.68;100467.23;1734206;82;21050;-67
2021/12/26 14:42:15;;;;;;;10.53;5.17;;;;;;;-2.69;59.81;100471.84;1734744;82;21004;-67
2021/12/26 14:44:46;;;;;;;11.25;5.92;;;;;;;-2.72;59.91;100474.30;1734876;82;21051;-66
2021/12/26 14:47:25;;;;;;;11.53;5.65;;;;;;;-2.75;60.03;100482.48;1734720;82;20963;-68
2021/12/26 14:49:58;;;;;;;10.78;5.75;;;;;;;-2.78;60.12;100477.59;1735038;82;21028;-68
2021/12/26 14:52:27;;;;;;;10.60;5.40;;;;;;;-2.79;60.20;100483.81;1734852;82;21106;-67
2021/12/26 14:54:56;;;;;;;12.07;5.80;;;;;;;-2.84;60.27;100492.15;1734886;82;21132;-67
2021/12/26 14:57:32;;;;;;;9.75;5.03;;;;;;;-2.85;60.45;100493.64;1734864;82;21612;-67
2021/12/26 15:00:03;;;;;;;12.23;5.78;;;;;;;-2.85;60.45;100493.64;1735127;82;21019;-67
2021/12/26 15:02:40;;;;;;;10.75;5.17;;;;;;;-2.86;60.40;100494.64;1729077;81;21467;-67
2021/12/26 15:05:26;;;;;;;11.70;6.08;;;;;;;-2.84;60.39;100495.27;1733853;81;21514;-67
2021/12/26 15:07:53;;;;;;;11.55;5.87;;;;;;;-2.81;60.33;100500.16;1710389;81;21100;-66
2021/12/26 15:10:35;;;;;;;12.63;6.00;;;;;;;-2.84;60.33;100496.08;1732639;81;21010;-67
2021/12/26 15:13:02;;;;;;;12.82;6.78;;;;;;;-2.88;60.34;100497.91;1733753;81;21055;-66
2021/12/26 15:15:34;;;;;;;11.43;6.00;;;;;;;-2.95;60.39;100506.92;1733707;82;21071;-68
2021/12/26 15:18:29;;;;;;;;;;;;;;;-3.02;60.48;100507.77;1737438;82;20991;-68
2021/12/26 15:20:58;;;;;;;11.48;5.62;;;;;;;-3.08;60.59;100505.34;1734502;82;21117;-67
2021/12/26 15:23:32;;;;;;;14.58;5.65;;;;;;;-3.13;60.70;100508.44;1734440;82;21607;-69
2021/12/26 15:26:21;;;;;;;10.98;6.03;;;;;;;-3.19;60.83;100514.36;1735114;82;20980;-68
2021/12/26 15:28:50;;;;;;;14.30;6.60;;;;;;;-3.23;61.00;100509.62;1734324;82;21477;-67
2021/12/26 15:31:31;;;;;;;13.43;6.12;;;;;;;-3.30;61.13;100516.01;1734599;82;21095;-66
2021/12/26 15:34:05;;;;;;;11.53;6.00;;;;;;;-3.34;61.26;100512.11;1734851;82;21799;-67
2021/12/26 15:36:42;;;;;;;13.15;6.55;;;;;;;-3.39;61.40;100512.63;1734052;82;21003;-68
2021/12/26 15:39:12;;;;;;;12.15;6.08;;;;;;;-3.44;61.64;100514.09;1734616;82;20959;-67
2021/12/26 15:41:42;;;;;;;11.38;5.87;;;;;;;-3.50;61.89;100519.98;1734785;82;21081;-67
2021/12/26 15:44:09;;;;;;;12.47;5.45;;;;;;;-3.59;62.08;100519.97;1735113;82;20972;-67
2021/12/26 15:46:40;;;;;;;15.00;6.75;;;;;;;-3.62;62.33;100526.86;1734465;81;21160;-68
2021/12/26 15:49:08;;;;;;;11.43;6.17;;;;;;;-3.65;62.52;100522.43;1735284;81;21063;-68
2021/12/26 15:51:35;;;;;;;13.65;6.95;;;;;;;-3.66;62.66;100528.14;1734709;81;21050;-67
2021/12/26 15:54:03;;;;;;;12.93;7.00;;;;;;;-3.67;62.85;100531.74;1734828;82;20988;-67
2021/12/26 15:56:30;;;;;;;12.15;6.50;;;;;;;-3.65;62.92;100529.80;1734511;81;21030;-68
2021/12/26 15:58:57;;;;;;;16.93;7.30;;;;;;;-3.66;63.01;100529.45;1734689;82;21742;-69
2021/12/26 16:01:26;;;;;;;14.18;6.92;;;;;;;-3.70;63.11;100530.77;1734122;82;21522;-68
2021/12/26 16:03:53;;;;;;;12.25;6.55;;;;;;;-3.70;63.17;100529.46;1734547;82;21015;-67
2021/12/26 16:06:19;;;;;;;12.60;6.58;;;;;;;-3.71;63.23;100531.75;1734949;81;21008;-67
2021/12/26 16:08:46;;;;;;;12.85;6.45;;;;;;;-3.75;63.34;100531.77;1734801;81;20969;-67